sensor_id;sensor_type;location;lat;lon;timestamp;pressure;altitude;pressure_sealevel;temperature;humidity
5703;BME280;2876;51.738;10.050;2023-02-28T00:05:19;100656.47;;;-0.33;74.57
5703;BME280;2876;51.738;10.050;2023-02-28T00:11:22;100664.56;;;-0.21;74.52
5703;BME280;2876;51.738;10.050;2023-02-28T00:17:24;100652.06;;;-0.05;71.44
5703;BME280;2876;51.738;10.050;2023-02-28T00:23:27;100647.66;;;-0.05;70.70
5703;BME280;2876;51.738;10.050;2023-02-28T00:29:29;100652.34;;;0.05;70.80
5703;BME280;2876;51.738;10.050;2023-02-28T00:35:31;100654.69;;;0.09;70.52
5703;BME280;2876;51.738;10.050;2023-02-28T00:41:32;100649.31;;;0.11;70.13
5703;BME280;2876;51.738;10.050;2023-02-28T00:47:34;100662.59;;;0.09;69.37
5703;BME280;2876;51.738;10.050;2023-02-28T00:53:37;100653.56;;;0.26;67.33
5703;BME280;2876;51.738;10.050;2023-02-28T00:59:38;100651.78;;;0.27;66.24
5703;BME280;2876;51.738;10.050;2023-02-28T01:05:40;100658.91;;;0.12;66.72
5703;BME280;2876;51.738;10.050;2023-02-28T01:11:43;100645.59;;;0.13;66.50
5703;BME280;2876;51.738;10.050;2023-02-28T01:17:45;100645.56;;;0.28;65.66
5703;BME280;2876;51.738;10.050;2023-02-28T01:23:48;100634.25;;;0.25;64.85
5703;BME280;2876;51.738;10.050;2023-02-28T01:29:50;100632.47;;;0.26;64.87
5703;BME280;2876;51.738;10.050;2023-02-28T01:36:05;100630.72;;;0.39;63.68
5703;BME280;2876;51.738;10.050;2023-02-28T01:42:09;100630.19;;;0.34;64.64
5703;BME280;2876;51.738;10.050;2023-02-28T01:48:11;100629.97;;;0.37;66.07
5703;BME280;2876;51.738;10.050;2023-02-28T01:54:19;100629.13;;;0.37;63.56
5703;BME280;2876;51.738;10.050;2023-02-28T02:00:25;100623.34;;;0.57;60.44
5703;BME280;2876;51.738;10.050;2023-02-28T02:06:45;100614.78;;;0.54;59.70
5703;BME280;2876;51.738;10.050;2023-02-28T02:13:12;100611.44;;;0.52;60.21
5703;BME280;2876;51.738;10.050;2023-02-28T02:39:19;100606.47;;;0.72;64.19
5703;BME280;2876;51.738;10.050;2023-02-28T02:45:29;100610.78;;;0.48;65.18
5703;BME280;2876;51.738;10.050;2023-02-28T02:51:38;100602.75;;;0.37;64.29
5703;BME280;2876;51.738;10.050;2023-02-28T02:57:53;100603.19;;;0.56;64.12
5703;BME280;2876;51.738;10.050;2023-02-28T03:04:09;100611.44;;;0.52;63.44
5703;BME280;2876;51.738;10.050;2023-02-28T03:10:40;100610.91;;;0.46;62.81
5703;BME280;2876;51.738;10.050;2023-02-28T03:17:03;100610.50;;;0.65;63.22
5703;BME280;2876;51.738;10.050;2023-02-28T03:24:04;100613.84;;;0.67;65.55
5703;BME280;2876;51.738;10.050;2023-02-28T03:30:28;100619.88;;;0.57;67.46
5703;BME280;2876;51.738;10.050;2023-02-28T03:36:39;100624.78;;;0.36;67.10
5703;BME280;2876;51.738;10.050;2023-02-28T03:42:49;100625.94;;;0.32;67.00
5703;BME280;2876;51.738;10.050;2023-02-28T03:49:13;100625.75;;;0.35;66.51
5703;BME280;2876;51.738;10.050;2023-02-28T03:55:18;100616.25;;;0.32;67.31
5703;BME280;2876;51.738;10.050;2023-02-28T04:01:40;100621.84;;;0.40;66.79
5703;BME280;2876;51.738;10.050;2023-02-28T04:07:43;100621.22;;;0.49;64.72
5703;BME280;2876;51.738;10.050;2023-02-28T04:13:45;100626.91;;;0.43;64.93
5703;BME280;2876;51.738;10.050;2023-02-28T04:19:48;100624.13;;;0.59;64.91
5703;BME280;2876;51.738;10.050;2023-02-28T04:25:55;100617.03;;;0.60;64.47
5703;BME280;2876;51.738;10.050;2023-02-28T04:31:58;100629.75;;;0.40;64.46
5703;BME280;2876;51.738;10.050;2023-02-28T04:38:01;100628.94;;;0.53;64.67
5703;BME280;2876;51.738;10.050;2023-02-28T04:44:03;100631.16;;;0.59;64.99
5703;BME280;2876;51.738;10.050;2023-02-28T04:50:05;100633.44;;;0.78;64.74
5703;BME280;2876;51.738;10.050;2023-02-28T04:56:11;100636.16;;;0.76;66.19
5703;BME280;2876;51.738;10.050;2023-02-28T05:02:13;100633.63;;;0.87;67.06
5703;BME280;2876;51.738;10.050;2023-02-28T05:08:15;100633.81;;;0.71;67.05
5703;BME280;2876;51.738;10.050;2023-02-28T05:14:17;100631.28;;;0.70;66.87
5703;BME280;2876;51.738;10.050;2023-02-28T05:20:19;100634.06;;;0.68;68.03
5703;BME280;2876;51.738;10.050;2023-02-28T05:26:23;100626.91;;;0.43;68.54
5703;BME280;2876;51.738;10.050;2023-02-28T05:32:25;100632.03;;;0.59;69.25
5703;BME280;2876;51.738;10.050;2023-02-28T05:38:27;100636.75;;;0.54;68.32
5703;BME280;2876;51.738;10.050;2023-02-28T05:44:29;100637.78;;;0.39;68.51
5703;BME280;2876;51.738;10.050;2023-02-28T05:50:31;100643.59;;;0.44;68.18
5703;BME280;2876;51.738;10.050;2023-02-28T05:56:33;100647.41;;;0.53;68.41
5703;BME280;2876;51.738;10.050;2023-02-28T06:02:40;100655.00;;;0.44;70.16
5703;BME280;2876;51.738;10.050;2023-02-28T06:08:42;100650.38;;;0.48;70.15
5703;BME280;2876;51.738;10.050;2023-02-28T06:14:46;100657.28;;;0.36;71.19
5703;BME280;2876;51.738;10.050;2023-02-28T06:20:55;100666.53;;;0.16;72.28
5703;BME280;2876;51.738;10.050;2023-02-28T06:26:57;100663.59;;;0.21;71.97
5703;BME280;2876;51.738;10.050;2023-02-28T06:33:06;100674.59;;;0.28;72.57
5703;BME280;2876;51.738;10.050;2023-02-28T06:39:09;100675.38;;;0.42;72.18
5703;BME280;2876;51.738;10.050;2023-02-28T06:45:12;100682.56;;;0.53;72.83
5703;BME280;2876;51.738;10.050;2023-02-28T06:51:18;100688.06;;;0.63;73.29
5703;BME280;2876;51.738;10.050;2023-02-28T06:57:22;100688.97;;;0.89;73.25
5703;BME280;2876;51.738;10.050;2023-02-28T07:03:26;100686.88;;;1.07;72.95
5703;BME280;2876;51.738;10.050;2023-02-28T07:09:28;100691.84;;;1.24;72.17
5703;BME280;2876;51.738;10.050;2023-02-28T07:15:31;100697.22;;;1.48;71.06
5703;BME280;2876;51.738;10.050;2023-02-28T07:21:33;100696.59;;;1.57;70.17
5703;BME280;2876;51.738;10.050;2023-02-28T07:27:35;100701.19;;;1.92;68.86
5703;BME280;2876;51.738;10.050;2023-02-28T07:33:37;100704.63;;;2.05;68.66
5703;BME280;2876;51.738;10.050;2023-02-28T07:39:40;100703.13;;;2.38;66.93
5703;BME280;2876;51.738;10.050;2023-02-28T07:45:45;100697.16;;;2.47;67.33
5703;BME280;2876;51.738;10.050;2023-02-28T07:51:47;100696.53;;;2.43;66.46
5703;BME280;2876;51.738;10.050;2023-02-28T07:57:49;100717.25;;;2.73;66.59
5703;BME280;2876;51.738;10.050;2023-02-28T08:03:51;100708.81;;;2.79;65.30
5703;BME280;2876;51.738;10.050;2023-02-28T08:09:53;100711.09;;;3.30;64.24
5703;BME280;2876;51.738;10.050;2023-02-28T08:15:56;100704.13;;;3.29;64.50
5703;BME280;2876;51.738;10.050;2023-02-28T08:21:58;100709.56;;;3.62;62.79
5703;BME280;2876;51.738;10.050;2023-02-28T08:28:00;100712.22;;;3.73;62.58
5703;BME280;2876;51.738;10.050;2023-02-28T08:34:14;100710.19;;;4.31;61.01
5703;BME280;2876;51.738;10.050;2023-02-28T08:40:17;100707.34;;;4.55;58.85
5703;BME280;2876;51.738;10.050;2023-02-28T08:46:20;100707.81;;;4.60;59.00
5703;BME280;2876;51.738;10.050;2023-02-28T08:52:22;100707.34;;;4.12;59.62
5703;BME280;2876;51.738;10.050;2023-02-28T08:58:24;100704.72;;;4.00;59.81
5703;BME280;2876;51.738;10.050;2023-02-28T09:04:26;100699.44;;;3.55;59.83
5703;BME280;2876;51.738;10.050;2023-02-28T09:10:28;100706.53;;;3.44;60.61
5703;BME280;2876;51.738;10.050;2023-02-28T09:16:32;100706.09;;;3.50;58.89
5703;BME280;2876;51.738;10.050;2023-02-28T09:22:35;100709.94;;;3.46;54.66
5703;BME280;2876;51.738;10.050;2023-02-28T09:28:37;100719.56;;;3.58;54.43
5703;BME280;2876;51.738;10.050;2023-02-28T09:34:39;100714.59;;;3.98;52.78
5703;BME280;2876;51.738;10.050;2023-02-28T09:40:57;100719.81;;;4.54;51.36
5703;BME280;2876;51.738;10.050;2023-02-28T09:47:27;100707.75;;;4.50;50.44
5703;BME280;2876;51.738;10.050;2023-02-28T09:53:34;100702.03;;;4.55;49.27
5703;BME280;2876;51.738;10.050;2023-02-28T10:06:18;100703.56;;;5.11;49.13
5703;BME280;2876;51.738;10.050;2023-02-28T10:12:21;100704.41;;;5.32;46.78
5703;BME280;2876;51.738;10.050;2023-02-28T10:18:29;100705.50;;;5.08;45.41
5703;BME280;2876;51.738;10.050;2023-02-28T10:24:46;100702.78;;;5.41;46.14
5703;BME280;2876;51.738;10.050;2023-02-28T10:30:51;100699.78;;;5.34;44.73
5703;BME280;2876;51.738;10.050;2023-02-28T10:36:54;100694.22;;;5.37;46.50
5703;BME280;2876;51.738;10.050;2023-02-28T10:43:02;100693.81;;;5.72;43.77
5703;BME280;2876;51.738;10.050;2023-02-28T10:49:41;100690.56;;;5.69;43.08
5703;BME280;2876;51.738;10.050;2023-02-28T10:55:36;100689.78;;;6.18;44.41
5703;BME280;2876;51.738;10.050;2023-02-28T11:01:43;100676.63;;;6.36;43.92
5703;BME280;2876;51.738;10.050;2023-02-28T11:08:14;100690.25;;;5.93;42.70
5703;BME280;2876;51.738;10.050;2023-02-28T11:14:28;100679.00;;;6.88;39.44
5703;BME280;2876;51.738;10.050;2023-02-28T11:20:33;100675.72;;;7.03;42.72
5703;BME280;2876;51.738;10.050;2023-02-28T11:26:45;100681.56;;;7.26;40.25
5703;BME280;2876;51.738;10.050;2023-02-28T11:32:51;100668.66;;;8.42;38.05
5703;BME280;2876;51.738;10.050;2023-02-28T11:38:56;100664.41;;;9.79;36.66
5703;BME280;2876;51.738;10.050;2023-02-28T11:51:49;100653.66;;;11.35;32.63
5703;BME280;2876;51.738;10.050;2023-02-28T11:58:19;100651.66;;;11.29;33.57
5703;BME280;2876;51.738;10.050;2023-02-28T12:11:06;100632.28;;;10.46;34.05
5703;BME280;2876;51.738;10.050;2023-02-28T12:36:19;100633.06;;;12.60;32.85
5703;BME280;2876;51.738;10.050;2023-02-28T12:42:34;100625.66;;;13.15;32.11
5703;BME280;2876;51.738;10.050;2023-02-28T12:48:56;100616.66;;;14.18;28.42
5703;BME280;2876;51.738;10.050;2023-02-28T12:55:18;100610.28;;;13.24;30.09
5703;BME280;2876;51.738;10.050;2023-02-28T13:14:36;100616.09;;;17.05;26.12
5703;BME280;2876;51.738;10.050;2023-02-28T13:20:47;100603.22;;;18.80;24.59
5703;BME280;2876;51.738;10.050;2023-02-28T13:45:37;100593.78;;;20.60;22.88
5703;BME280;2876;51.738;10.050;2023-02-28T13:52:10;100586.22;;;19.71;23.13
5703;BME280;2876;51.738;10.050;2023-02-28T14:11:08;100565.13;;;20.81;23.10
5703;BME280;2876;51.738;10.050;2023-02-28T14:17:15;100565.59;;;21.36;22.07
5703;BME280;2876;51.738;10.050;2023-02-28T14:23:55;100563.00;;;19.99;22.73
5703;BME280;2876;51.738;10.050;2023-02-28T14:36:25;100559.56;;;19.73;23.54
5703;BME280;2876;51.738;10.050;2023-02-28T14:42:37;100558.56;;;19.86;23.44
5703;BME280;2876;51.738;10.050;2023-02-28T14:48:46;100563.53;;;18.97;24.47
5703;BME280;2876;51.738;10.050;2023-02-28T14:55:06;100556.72;;;19.68;23.54
5703;BME280;2876;51.738;10.050;2023-02-28T15:01:12;100555.16;;;17.28;26.46
5703;BME280;2876;51.738;10.050;2023-02-28T15:07:15;100555.53;;;15.92;27.86
5703;BME280;2876;51.738;10.050;2023-02-28T15:13:18;100559.72;;;15.94;28.76
5703;BME280;2876;51.738;10.050;2023-02-28T15:19:36;100556.78;;;14.29;30.34
5703;BME280;2876;51.738;10.050;2023-02-28T15:25:43;100548.81;;;12.75;32.02
5703;BME280;2876;51.738;10.050;2023-02-28T15:31:51;100554.03;;;11.92;33.53
5703;BME280;2876;51.738;10.050;2023-02-28T15:44:34;100552.06;;;9.85;37.77
5703;BME280;2876;51.738;10.050;2023-02-28T15:50:38;100544.72;;;9.37;38.97
5703;BME280;2876;51.738;10.050;2023-02-28T15:56:51;100543.59;;;9.48;38.16
5703;BME280;2876;51.738;10.050;2023-02-28T16:02:54;100557.28;;;10.11;37.42
5703;BME280;2876;51.738;10.050;2023-02-28T16:08:56;100551.81;;;11.96;34.43
5703;BME280;2876;51.738;10.050;2023-02-28T16:15:06;100546.94;;;12.23;34.12
5703;BME280;2876;51.738;10.050;2023-02-28T16:21:09;100556.22;;;12.12;34.14
5703;BME280;2876;51.738;10.050;2023-02-28T16:27:36;100566.88;;;11.74;34.83
5703;BME280;2876;51.738;10.050;2023-02-28T16:33:38;100555.59;;;9.01;39.90
5703;BME280;2876;51.738;10.050;2023-02-28T16:39:42;100566.38;;;7.41;42.92
5703;BME280;2876;51.738;10.050;2023-02-28T16:45:44;100578.03;;;6.17;46.29
5703;BME280;2876;51.738;10.050;2023-02-28T16:51:47;100565.88;;;5.14;50.72
5703;BME280;2876;51.738;10.050;2023-02-28T16:58:01;100574.19;;;4.27;53.86
5703;BME280;2876;51.738;10.050;2023-02-28T17:04:03;100598.28;;;3.60;57.79
5703;BME280;2876;51.738;10.050;2023-02-28T17:10:18;100599.84;;;2.73;61.31
5703;BME280;2876;51.738;10.050;2023-02-28T17:16:29;100596.28;;;2.39;61.86
5703;BME280;2876;51.738;10.050;2023-02-28T17:22:32;100610.66;;;2.23;62.81
5703;BME280;2876;51.738;10.050;2023-02-28T17:28:34;100618.09;;;2.18;63.41
5703;BME280;2876;51.738;10.050;2023-02-28T17:34:36;100621.78;;;2.05;63.83
5703;BME280;2876;51.738;10.050;2023-02-28T17:40:38;100617.78;;;1.86;64.48
5703;BME280;2876;51.738;10.050;2023-02-28T17:46:41;100633.72;;;1.73;65.07
5703;BME280;2876;51.738;10.050;2023-02-28T17:52:43;100640.19;;;1.69;65.66
5703;BME280;2876;51.738;10.050;2023-02-28T17:58:46;100636.88;;;1.42;67.33
5703;BME280;2876;51.738;10.050;2023-02-28T18:04:48;100630.38;;;0.96;68.80
5703;BME280;2876;51.738;10.050;2023-02-28T18:10:50;100641.88;;;0.83;69.69
5703;BME280;2876;51.738;10.050;2023-02-28T18:16:53;100636.13;;;0.63;70.59
5703;BME280;2876;51.738;10.050;2023-02-28T18:22:55;100641.63;;;0.60;71.09
5703;BME280;2876;51.738;10.050;2023-02-28T18:28:57;100637.00;;;0.64;70.59
5703;BME280;2876;51.738;10.050;2023-02-28T18:34:59;100629.63;;;0.69;70.64
5703;BME280;2876;51.738;10.050;2023-02-28T18:41:04;100627.19;;;0.79;70.09
5703;BME280;2876;51.738;10.050;2023-02-28T18:47:06;100624.00;;;0.86;69.68
5703;BME280;2876;51.738;10.050;2023-02-28T18:53:08;100620.94;;;0.67;70.96
5703;BME280;2876;51.738;10.050;2023-02-28T18:59:11;100624.09;;;0.72;70.79
5703;BME280;2876;51.738;10.050;2023-02-28T19:05:13;100629.94;;;0.64;70.56
5703;BME280;2876;51.738;10.050;2023-02-28T19:11:17;100625.16;;;0.57;70.93
5703;BME280;2876;51.738;10.050;2023-02-28T19:17:20;100621.16;;;0.64;71.01
5703;BME280;2876;51.738;10.050;2023-02-28T19:23:22;100621.53;;;0.45;71.57
5703;BME280;2876;51.738;10.050;2023-02-28T19:29:24;100620.81;;;0.43;71.46
5703;BME280;2876;51.738;10.050;2023-02-28T19:35:26;100626.69;;;0.34;71.44
5703;BME280;2876;51.738;10.050;2023-02-28T19:41:28;100633.00;;;0.18;72.07
5703;BME280;2876;51.738;10.050;2023-02-28T19:47:30;100630.84;;;0.11;72.83
5703;BME280;2876;51.738;10.050;2023-02-28T19:53:34;100646.22;;;0.04;73.09
5703;BME280;2876;51.738;10.050;2023-02-28T19:59:37;100632.94;;;0.06;73.72
5703;BME280;2876;51.738;10.050;2023-02-28T20:05:41;100635.56;;;-0.21;74.60
5703;BME280;2876;51.738;10.050;2023-02-28T20:11:44;100630.31;;;-0.21;74.86
5703;BME280;2876;51.738;10.050;2023-02-28T20:17:46;100630.31;;;-0.21;75.36
5703;BME280;2876;51.738;10.050;2023-02-28T20:23:48;100632.69;;;-0.31;75.49
5703;BME280;2876;51.738;10.050;2023-02-28T20:29:50;100635.25;;;-0.44;76.03
5703;BME280;2876;51.738;10.050;2023-02-28T20:36:03;100628.38;;;-0.61;77.26
5703;BME280;2876;51.738;10.050;2023-02-28T20:42:06;100633.19;;;-0.53;76.92
5703;BME280;2876;51.738;10.050;2023-02-28T20:48:08;100638.00;;;-0.74;77.55
5703;BME280;2876;51.738;10.050;2023-02-28T20:54:10;100644.31;;;-0.77;77.80
5703;BME280;2876;51.738;10.050;2023-02-28T21:00:12;100650.22;;;-0.73;77.83
5703;BME280;2876;51.738;10.050;2023-02-28T21:06:23;100650.41;;;-0.62;76.77
5703;BME280;2876;51.738;10.050;2023-02-28T21:12:25;100657.25;;;-0.59;76.24
5703;BME280;2876;51.738;10.050;2023-02-28T21:18:27;100657.91;;;-0.27;74.94
5703;BME280;2876;51.738;10.050;2023-02-28T21:24:29;100647.16;;;-0.24;74.52
5703;BME280;2876;51.738;10.050;2023-02-28T21:30:31;100635.53;;;-0.07;72.98
5703;BME280;2876;51.738;10.050;2023-02-28T21:36:41;100645.34;;;-0.23;74.25
5703;BME280;2876;51.738;10.050;2023-02-28T21:42:45;100643.22;;;-0.31;74.55
5703;BME280;2876;51.738;10.050;2023-02-28T21:48:48;100645.97;;;-0.47;75.16
5703;BME280;2876;51.738;10.050;2023-02-28T21:54:50;100643.81;;;-0.55;75.84
5703;BME280;2876;51.738;10.050;2023-02-28T22:00:52;100640.25;;;-0.82;77.77
5703;BME280;2876;51.738;10.050;2023-02-28T22:06:55;100643.94;;;-0.99;78.15
5703;BME280;2876;51.738;10.050;2023-02-28T22:13:01;100649.38;;;-1.02;78.76
5703;BME280;2876;51.738;10.050;2023-02-28T22:19:05;100650.31;;;-1.03;78.57
5703;BME280;2876;51.738;10.050;2023-02-28T22:25:09;100649.19;;;-0.99;78.43
5703;BME280;2876;51.738;10.050;2023-02-28T22:31:14;100648.16;;;-0.96;77.78
5703;BME280;2876;51.738;10.050;2023-02-28T22:37:16;100644.50;;;-1.08;77.54
5703;BME280;2876;51.738;10.050;2023-02-28T22:43:18;100648.50;;;-1.17;77.70
5703;BME280;2876;51.738;10.050;2023-02-28T22:49:20;100643.16;;;-1.15;78.13
5703;BME280;2876;51.738;10.050;2023-02-28T22:55:22;100635.06;;;-1.26;78.36
5703;BME280;2876;51.738;10.050;2023-02-28T23:01:27;100631.88;;;-1.32;77.94
5703;BME280;2876;51.738;10.050;2023-02-28T23:07:29;100626.47;;;-1.44;78.43
5703;BME280;2876;51.738;10.050;2023-02-28T23:13:31;100639.34;;;-1.54;78.50
5703;BME280;2876;51.738;10.050;2023-02-28T23:19:33;100638.34;;;-1.67;79.23
5703;BME280;2876;51.738;10.050;2023-02-28T23:25:38;100633.25;;;-1.70;79.80
5703;BME280;2876;51.738;10.050;2023-02-28T23:31:41;100643.34;;;-1.63;79.12
5703;BME280;2876;51.738;10.050;2023-02-28T23:37:43;100644.56;;;-1.84;80.33
5703;BME280;2876;51.738;10.050;2023-02-28T23:43:46;100648.47;;;-1.91;79.66
5703;BME280;2876;51.738;10.050;2023-02-28T23:49:48;100642.47;;;-2.09;80.76
5703;BME280;2876;51.738;10.050;2023-02-28T23:55:50;100652.66;;;-2.19;81.19
